sensor_id;sensor_type;location;lat;lon;timestamp;temperature;humidity
17381;DHT22;8808;52.478;13.378;2022-10-16T00:00:02;15.90;99.90
17381;DHT22;8808;52.478;13.378;2022-10-16T00:02:29;15.90;99.90
17381;DHT22;8808;52.478;13.378;2022-10-16T00:04:56;16.00;99.90
17381;DHT22;8808;52.478;13.378;2022-10-16T00:07:23;16.00;99.90
17381;DHT22;8808;52.478;13.378;2022-10-16T00:09:51;16.00;99.90
17381;DHT22;8808;52.478;13.378;2022-10-16T00:12:19;16.10;99.90
17381;DHT22;8808;52.478;13.378;2022-10-16T00:14:46;16.10;99.90
17381;DHT22;8808;52.478;13.378;2022-10-16T00:17:13;16.10;99.90
17381;DHT22;8808;52.478;13.378;2022-10-16T00:19:40;16.20;99.90
17381;DHT22;8808;52.478;13.378;2022-10-16T00:22:07;16.20;99.90
17381;DHT22;8808;52.478;13.378;2022-10-16T00:24:33;16.20;99.90
17381;DHT22;8808;52.478;13.378;2022-10-16T00:27:00;16.20;99.90
17381;DHT22;8808;52.478;13.378;2022-10-16T00:29:29;16.20;99.90
17381;DHT22;8808;52.478;13.378;2022-10-16T00:31:56;16.30;99.90
17381;DHT22;8808;52.478;13.378;2022-10-16T00:34:23;16.30;99.90
17381;DHT22;8808;52.478;13.378;2022-10-16T00:36:50;16.30;99.90
17381;DHT22;8808;52.478;13.378;2022-10-16T00:39:17;16.30;99.90
17381;DHT22;8808;52.478;13.378;2022-10-16T00:41:45;16.30;99.90
17381;DHT22;8808;52.478;13.378;2022-10-16T00:44:45;16.30;99.90
17381;DHT22;8808;52.478;13.378;2022-10-16T00:47:17;16.30;99.90
17381;DHT22;8808;52.478;13.378;2022-10-16T00:49:46;16.30;99.90
17381;DHT22;8808;52.478;13.378;2022-10-16T00:52:14;16.40;99.90
17381;DHT22;8808;52.478;13.378;2022-10-16T00:54:41;16.40;99.90
17381;DHT22;8808;52.478;13.378;2022-10-16T00:57:08;16.40;99.90
17381;DHT22;8808;52.478;13.378;2022-10-16T00:59:37;16.40;99.90
17381;DHT22;8808;52.478;13.378;2022-10-16T01:04:43;16.30;99.90
17381;DHT22;8808;52.478;13.378;2022-10-16T01:07:23;16.30;99.90
17381;DHT22;8808;52.478;13.378;2022-10-16T01:10:09;16.30;99.90
17381;DHT22;8808;52.478;13.378;2022-10-16T01:12:50;16.20;99.90
17381;DHT22;8808;52.478;13.378;2022-10-16T01:15:29;16.20;99.90
17381;DHT22;8808;52.478;13.378;2022-10-16T01:18:05;16.10;99.90
17381;DHT22;8808;52.478;13.378;2022-10-16T01:20:49;16.10;99.90
17381;DHT22;8808;52.478;13.378;2022-10-16T01:23:28;16.20;99.90
17381;DHT22;8808;52.478;13.378;2022-10-16T01:26:14;16.10;99.90
17381;DHT22;8808;52.478;13.378;2022-10-16T01:31:22;16.10;99.90
17381;DHT22;8808;52.478;13.378;2022-10-16T01:33:57;16.00;99.90
17381;DHT22;8808;52.478;13.378;2022-10-16T01:36:31;16.00;99.90
17381;DHT22;8808;52.478;13.378;2022-10-16T01:39:03;16.00;99.90
17381;DHT22;8808;52.478;13.378;2022-10-16T01:41:34;16.10;99.90
17381;DHT22;8808;52.478;13.378;2022-10-16T01:44:05;16.10;99.90
17381;DHT22;8808;52.478;13.378;2022-10-16T01:46:40;16.10;99.90
17381;DHT22;8808;52.478;13.378;2022-10-16T01:49:09;16.10;99.90
17381;DHT22;8808;52.478;13.378;2022-10-16T01:51:38;16.10;99.90
17381;DHT22;8808;52.478;13.378;2022-10-16T01:54:08;16.10;99.90
17381;DHT22;8808;52.478;13.378;2022-10-16T01:56:35;16.10;99.90
17381;DHT22;8808;52.478;13.378;2022-10-16T01:59:05;16.10;99.90
17381;DHT22;8808;52.478;13.378;2022-10-16T02:01:38;16.10;99.90
17381;DHT22;8808;52.478;13.378;2022-10-16T02:04:11;16.10;99.90
17381;DHT22;8808;52.478;13.378;2022-10-16T02:06:39;16.10;99.90
17381;DHT22;8808;52.478;13.378;2022-10-16T02:09:06;16.10;99.90
17381;DHT22;8808;52.478;13.378;2022-10-16T02:11:33;16.10;99.90
17381;DHT22;8808;52.478;13.378;2022-10-16T02:14:04;16.10;99.90
17381;DHT22;8808;52.478;13.378;2022-10-16T02:16:37;16.10;99.90
17381;DHT22;8808;52.478;13.378;2022-10-16T02:19:05;16.20;99.90
17381;DHT22;8808;52.478;13.378;2022-10-16T02:21:38;16.10;99.90
17381;DHT22;8808;52.478;13.378;2022-10-16T02:24:09;16.00;99.90
17381;DHT22;8808;52.478;13.378;2022-10-16T02:26:43;16.10;99.90
17381;DHT22;8808;52.478;13.378;2022-10-16T02:29:14;16.00;99.90
17381;DHT22;8808;52.478;13.378;2022-10-16T02:31:47;16.10;99.90
17381;DHT22;8808;52.478;13.378;2022-10-16T02:34:18;16.10;99.90
17381;DHT22;8808;52.478;13.378;2022-10-16T02:36:47;16.00;99.90
17381;DHT22;8808;52.478;13.378;2022-10-16T02:39:15;16.10;99.90
17381;DHT22;8808;52.478;13.378;2022-10-16T02:41:43;16.10;99.90
17381;DHT22;8808;52.478;13.378;2022-10-16T02:44:10;16.10;99.90
17381;DHT22;8808;52.478;13.378;2022-10-16T02:46:37;16.00;99.90
17381;DHT22;8808;52.478;13.378;2022-10-16T02:49:05;16.10;99.90
17381;DHT22;8808;52.478;13.378;2022-10-16T02:51:32;16.00;99.90
17381;DHT22;8808;52.478;13.378;2022-10-16T02:53:59;16.10;99.90
17381;DHT22;8808;52.478;13.378;2022-10-16T02:56:26;16.10;99.90
17381;DHT22;8808;52.478;13.378;2022-10-16T02:58:53;16.00;99.90
17381;DHT22;8808;52.478;13.378;2022-10-16T03:01:21;16.00;99.90
17381;DHT22;8808;52.478;13.378;2022-10-16T03:03:48;16.00;99.90
17381;DHT22;8808;52.478;13.378;2022-10-16T03:06:16;16.00;99.90
17381;DHT22;8808;52.478;13.378;2022-10-16T03:08:43;15.90;99.90
17381;DHT22;8808;52.478;13.378;2022-10-16T03:11:09;15.90;99.90
17381;DHT22;8808;52.478;13.378;2022-10-16T03:13:36;15.90;99.90
17381;DHT22;8808;52.478;13.378;2022-10-16T03:16:03;15.90;99.90
17381;DHT22;8808;52.478;13.378;2022-10-16T03:18:30;15.90;99.90
17381;DHT22;8808;52.478;13.378;2022-10-16T03:20:57;15.90;99.90
17381;DHT22;8808;52.478;13.378;2022-10-16T03:23:25;15.70;99.90
17381;DHT22;8808;52.478;13.378;2022-10-16T03:25:52;15.80;99.90
17381;DHT22;8808;52.478;13.378;2022-10-16T03:28:19;15.70;99.90
17381;DHT22;8808;52.478;13.378;2022-10-16T03:30:46;15.60;99.90
17381;DHT22;8808;52.478;13.378;2022-10-16T03:33:13;15.60;99.90
17381;DHT22;8808;52.478;13.378;2022-10-16T03:35:40;15.60;99.90
17381;DHT22;8808;52.478;13.378;2022-10-16T03:38:07;15.60;99.90
17381;DHT22;8808;52.478;13.378;2022-10-16T03:40:35;15.60;99.90
17381;DHT22;8808;52.478;13.378;2022-10-16T03:43:02;15.60;99.90
17381;DHT22;8808;52.478;13.378;2022-10-16T03:45:28;15.60;99.90
17381;DHT22;8808;52.478;13.378;2022-10-16T03:47:55;15.60;99.90
17381;DHT22;8808;52.478;13.378;2022-10-16T03:50:22;15.60;99.90
17381;DHT22;8808;52.478;13.378;2022-10-16T03:52:49;15.60;99.90
17381;DHT22;8808;52.478;13.378;2022-10-16T03:55:16;15.50;99.90
17381;DHT22;8808;52.478;13.378;2022-10-16T03:57:44;15.60;99.90
17381;DHT22;8808;52.478;13.378;2022-10-16T04:00:12;15.50;99.90
17381;DHT22;8808;52.478;13.378;2022-10-16T04:02:39;15.60;99.90
17381;DHT22;8808;52.478;13.378;2022-10-16T04:05:06;15.50;99.90
17381;DHT22;8808;52.478;13.378;2022-10-16T04:07:33;15.50;99.90
17381;DHT22;8808;52.478;13.378;2022-10-16T04:10:01;15.50;99.90
17381;DHT22;8808;52.478;13.378;2022-10-16T04:12:27;15.50;99.90
17381;DHT22;8808;52.478;13.378;2022-10-16T04:14:56;15.50;99.90
17381;DHT22;8808;52.478;13.378;2022-10-16T04:17:22;15.60;99.90
17381;DHT22;8808;52.478;13.378;2022-10-16T04:19:49;15.50;99.90
17381;DHT22;8808;52.478;13.378;2022-10-16T04:22:16;15.50;99.90
17381;DHT22;8808;52.478;13.378;2022-10-16T04:24:43;15.50;99.90
17381;DHT22;8808;52.478;13.378;2022-10-16T04:27:10;15.60;99.90
17381;DHT22;8808;52.478;13.378;2022-10-16T04:29:37;15.50;99.90
17381;DHT22;8808;52.478;13.378;2022-10-16T04:32:05;15.40;99.90
17381;DHT22;8808;52.478;13.378;2022-10-16T04:34:32;15.40;99.90
17381;DHT22;8808;52.478;13.378;2022-10-16T04:36:59;15.40;99.90
17381;DHT22;8808;52.478;13.378;2022-10-16T04:39:26;15.50;99.90
17381;DHT22;8808;52.478;13.378;2022-10-16T04:41:53;15.50;99.90
17381;DHT22;8808;52.478;13.378;2022-10-16T04:44:19;15.40;99.90
17381;DHT22;8808;52.478;13.378;2022-10-16T04:46:46;15.30;99.90
17381;DHT22;8808;52.478;13.378;2022-10-16T04:49:14;15.20;99.90
17381;DHT22;8808;52.478;13.378;2022-10-16T04:51:41;15.10;99.90
17381;DHT22;8808;52.478;13.378;2022-10-16T04:54:08;15.10;99.90
17381;DHT22;8808;52.478;13.378;2022-10-16T04:56:35;15.10;99.90
17381;DHT22;8808;52.478;13.378;2022-10-16T04:59:08;15.10;99.90
17381;DHT22;8808;52.478;13.378;2022-10-16T05:01:35;15.00;99.90
17381;DHT22;8808;52.478;13.378;2022-10-16T05:04:02;15.10;99.90
17381;DHT22;8808;52.478;13.378;2022-10-16T05:06:31;15.20;99.90
17381;DHT22;8808;52.478;13.378;2022-10-16T05:08:58;15.10;99.90
17381;DHT22;8808;52.478;13.378;2022-10-16T05:11:25;15.20;99.90
17381;DHT22;8808;52.478;13.378;2022-10-16T05:13:52;15.00;99.90
17381;DHT22;8808;52.478;13.378;2022-10-16T05:16:18;15.00;99.90
17381;DHT22;8808;52.478;13.378;2022-10-16T05:18:45;14.90;99.90
17381;DHT22;8808;52.478;13.378;2022-10-16T05:21:12;14.90;99.90
17381;DHT22;8808;52.478;13.378;2022-10-16T05:23:40;14.80;99.90
17381;DHT22;8808;52.478;13.378;2022-10-16T05:26:07;14.80;99.90
17381;DHT22;8808;52.478;13.378;2022-10-16T05:28:34;14.90;99.90
17381;DHT22;8808;52.478;13.378;2022-10-16T05:31:04;14.90;99.90
17381;DHT22;8808;52.478;13.378;2022-10-16T05:33:31;14.80;99.90
17381;DHT22;8808;52.478;13.378;2022-10-16T05:36:01;14.80;99.90
17381;DHT22;8808;52.478;13.378;2022-10-16T05:38:28;14.80;99.90
17381;DHT22;8808;52.478;13.378;2022-10-16T05:40:56;14.80;99.90
17381;DHT22;8808;52.478;13.378;2022-10-16T05:43:23;14.70;99.90
17381;DHT22;8808;52.478;13.378;2022-10-16T05:45:54;14.70;99.90
17381;DHT22;8808;52.478;13.378;2022-10-16T05:48:21;14.70;99.90
17381;DHT22;8808;52.478;13.378;2022-10-16T05:50:48;14.70;99.90
17381;DHT22;8808;52.478;13.378;2022-10-16T05:53:22;14.70;99.90
17381;DHT22;8808;52.478;13.378;2022-10-16T05:55:52;14.80;99.90
17381;DHT22;8808;52.478;13.378;2022-10-16T05:58:20;14.80;99.90
17381;DHT22;8808;52.478;13.378;2022-10-16T06:00:53;14.80;99.90
17381;DHT22;8808;52.478;13.378;2022-10-16T06:03:20;14.80;99.90
17381;DHT22;8808;52.478;13.378;2022-10-16T06:05:47;14.80;99.90
17381;DHT22;8808;52.478;13.378;2022-10-16T06:08:14;14.80;99.90
17381;DHT22;8808;52.478;13.378;2022-10-16T06:10:42;14.80;99.90
17381;DHT22;8808;52.478;13.378;2022-10-16T06:13:09;14.80;99.90
17381;DHT22;8808;52.478;13.378;2022-10-16T06:15:37;15.00;99.90
17381;DHT22;8808;52.478;13.378;2022-10-16T06:18:07;15.00;99.90
17381;DHT22;8808;52.478;13.378;2022-10-16T06:20:34;15.00;99.90
17381;DHT22;8808;52.478;13.378;2022-10-16T06:23:01;15.10;99.90
17381;DHT22;8808;52.478;13.378;2022-10-16T06:25:29;15.00;99.90
17381;DHT22;8808;52.478;13.378;2022-10-16T06:27:56;15.10;99.90
17381;DHT22;8808;52.478;13.378;2022-10-16T06:30:23;15.10;99.90
17381;DHT22;8808;52.478;13.378;2022-10-16T06:32:51;15.20;99.90
17381;DHT22;8808;52.478;13.378;2022-10-16T06:35:18;15.20;99.90
17381;DHT22;8808;52.478;13.378;2022-10-16T06:37:45;15.20;99.90
17381;DHT22;8808;52.478;13.378;2022-10-16T06:40:12;15.30;99.90
17381;DHT22;8808;52.478;13.378;2022-10-16T06:42:41;15.30;99.90
17381;DHT22;8808;52.478;13.378;2022-10-16T06:45:08;15.30;99.90
17381;DHT22;8808;52.478;13.378;2022-10-16T06:47:35;15.40;99.90
17381;DHT22;8808;52.478;13.378;2022-10-16T06:50:05;15.40;99.90
17381;DHT22;8808;52.478;13.378;2022-10-16T06:52:33;15.40;99.90
17381;DHT22;8808;52.478;13.378;2022-10-16T06:54:59;15.40;99.90
17381;DHT22;8808;52.478;13.378;2022-10-16T06:57:27;15.40;99.90
17381;DHT22;8808;52.478;13.378;2022-10-16T06:59:53;15.50;99.90
17381;DHT22;8808;52.478;13.378;2022-10-16T07:02:20;15.50;99.90
17381;DHT22;8808;52.478;13.378;2022-10-16T07:04:47;15.50;99.90
17381;DHT22;8808;52.478;13.378;2022-10-16T07:07:16;15.60;99.90
17381;DHT22;8808;52.478;13.378;2022-10-16T07:09:42;15.70;99.90
17381;DHT22;8808;52.478;13.378;2022-10-16T07:12:09;15.70;99.90
17381;DHT22;8808;52.478;13.378;2022-10-16T07:14:36;15.80;99.90
17381;DHT22;8808;52.478;13.378;2022-10-16T07:17:03;15.80;99.90
17381;DHT22;8808;52.478;13.378;2022-10-16T07:19:30;15.80;99.90
17381;DHT22;8808;52.478;13.378;2022-10-16T07:21:57;15.90;99.90
17381;DHT22;8808;52.478;13.378;2022-10-16T07:24:25;15.90;99.90
17381;DHT22;8808;52.478;13.378;2022-10-16T07:26:52;15.90;99.90
17381;DHT22;8808;52.478;13.378;2022-10-16T07:29:20;16.00;99.90
17381;DHT22;8808;52.478;13.378;2022-10-16T07:31:48;16.10;99.90
17381;DHT22;8808;52.478;13.378;2022-10-16T07:34:17;16.20;99.90
17381;DHT22;8808;52.478;13.378;2022-10-16T07:36:44;16.20;99.90
17381;DHT22;8808;52.478;13.378;2022-10-16T07:39:11;16.20;99.90
17381;DHT22;8808;52.478;13.378;2022-10-16T07:41:40;16.20;99.90
17381;DHT22;8808;52.478;13.378;2022-10-16T07:44:07;16.20;99.90
17381;DHT22;8808;52.478;13.378;2022-10-16T07:46:35;16.30;99.90
17381;DHT22;8808;52.478;13.378;2022-10-16T07:49:02;16.30;99.90
17381;DHT22;8808;52.478;13.378;2022-10-16T07:51:29;16.30;99.90
17381;DHT22;8808;52.478;13.378;2022-10-16T07:53:56;16.30;99.90
17381;DHT22;8808;52.478;13.378;2022-10-16T07:56:23;16.30;99.90
17381;DHT22;8808;52.478;13.378;2022-10-16T07:58:52;16.40;99.90
17381;DHT22;8808;52.478;13.378;2022-10-16T08:01:20;16.40;99.90
17381;DHT22;8808;52.478;13.378;2022-10-16T08:03:48;16.40;99.90
17381;DHT22;8808;52.478;13.378;2022-10-16T08:06:17;16.50;99.90
17381;DHT22;8808;52.478;13.378;2022-10-16T08:08:44;16.50;99.90
17381;DHT22;8808;52.478;13.378;2022-10-16T08:11:11;16.50;99.90
17381;DHT22;8808;52.478;13.378;2022-10-16T08:13:38;16.50;99.90
17381;DHT22;8808;52.478;13.378;2022-10-16T08:16:07;16.60;99.90
17381;DHT22;8808;52.478;13.378;2022-10-16T08:18:35;16.60;99.90
17381;DHT22;8808;52.478;13.378;2022-10-16T08:21:03;16.60;99.90
17381;DHT22;8808;52.478;13.378;2022-10-16T08:23:30;16.60;99.90
17381;DHT22;8808;52.478;13.378;2022-10-16T08:26:03;16.70;99.90
17381;DHT22;8808;52.478;13.378;2022-10-16T08:28:30;16.80;99.90
17381;DHT22;8808;52.478;13.378;2022-10-16T08:31:06;16.80;99.90
17381;DHT22;8808;52.478;13.378;2022-10-16T08:33:33;16.80;99.90
17381;DHT22;8808;52.478;13.378;2022-10-16T08:36:01;16.90;99.90
17381;DHT22;8808;52.478;13.378;2022-10-16T08:38:28;16.90;99.90
17381;DHT22;8808;52.478;13.378;2022-10-16T08:41:10;16.90;99.90
17381;DHT22;8808;52.478;13.378;2022-10-16T08:43:57;17.00;99.90
17381;DHT22;8808;52.478;13.378;2022-10-16T08:46:37;17.10;99.90
17381;DHT22;8808;52.478;13.378;2022-10-16T08:49:10;17.10;99.90
17381;DHT22;8808;52.478;13.378;2022-10-16T08:51:37;17.10;99.90
17381;DHT22;8808;52.478;13.378;2022-10-16T08:54:06;17.10;99.90
17381;DHT22;8808;52.478;13.378;2022-10-16T08:56:38;17.20;99.90
17381;DHT22;8808;52.478;13.378;2022-10-16T08:59:10;17.20;99.90
17381;DHT22;8808;52.478;13.378;2022-10-16T09:01:42;17.10;99.90
17381;DHT22;8808;52.478;13.378;2022-10-16T09:04:39;17.20;99.90
17381;DHT22;8808;52.478;13.378;2022-10-16T09:07:13;17.20;99.90
17381;DHT22;8808;52.478;13.378;2022-10-16T09:09:56;17.50;99.90
17381;DHT22;8808;52.478;13.378;2022-10-16T09:12:31;17.50;99.90
17381;DHT22;8808;52.478;13.378;2022-10-16T09:15:06;17.60;99.90
17381;DHT22;8808;52.478;13.378;2022-10-16T09:17:44;17.60;99.90
17381;DHT22;8808;52.478;13.378;2022-10-16T09:20:36;17.70;99.90
17381;DHT22;8808;52.478;13.378;2022-10-16T09:23:15;17.60;99.90
17381;DHT22;8808;52.478;13.378;2022-10-16T09:25:45;17.70;99.90
17381;DHT22;8808;52.478;13.378;2022-10-16T09:28:13;17.80;99.90
17381;DHT22;8808;52.478;13.378;2022-10-16T09:30:40;17.90;99.90
17381;DHT22;8808;52.478;13.378;2022-10-16T09:33:09;18.00;99.90
17381;DHT22;8808;52.478;13.378;2022-10-16T09:35:38;18.10;99.90
17381;DHT22;8808;52.478;13.378;2022-10-16T09:38:07;18.10;99.90
17381;DHT22;8808;52.478;13.378;2022-10-16T09:40:36;18.00;99.90
17381;DHT22;8808;52.478;13.378;2022-10-16T09:43:21;18.00;99.90
17381;DHT22;8808;52.478;13.378;2022-10-16T09:45:59;18.20;99.90
17381;DHT22;8808;52.478;13.378;2022-10-16T09:48:31;18.50;99.90
17381;DHT22;8808;52.478;13.378;2022-10-16T09:51:02;18.40;99.90
17381;DHT22;8808;52.478;13.378;2022-10-16T09:53:40;18.40;99.90
17381;DHT22;8808;52.478;13.378;2022-10-16T09:56:10;18.30;99.90
17381;DHT22;8808;52.478;13.378;2022-10-16T09:58:42;18.30;99.90
17381;DHT22;8808;52.478;13.378;2022-10-16T10:01:13;18.30;99.90
17381;DHT22;8808;52.478;13.378;2022-10-16T10:03:43;18.40;99.90
17381;DHT22;8808;52.478;13.378;2022-10-16T10:06:21;18.60;99.90
17381;DHT22;8808;52.478;13.378;2022-10-16T10:08:56;18.70;99.90
17381;DHT22;8808;52.478;13.378;2022-10-16T10:11:41;18.70;99.90
17381;DHT22;8808;52.478;13.378;2022-10-16T10:14:20;18.80;99.90
17381;DHT22;8808;52.478;13.378;2022-10-16T10:16:49;18.80;99.90
17381;DHT22;8808;52.478;13.378;2022-10-16T10:19:19;18.70;99.90
17381;DHT22;8808;52.478;13.378;2022-10-16T10:21:47;18.60;99.90
17381;DHT22;8808;52.478;13.378;2022-10-16T10:24:15;18.70;99.90
17381;DHT22;8808;52.478;13.378;2022-10-16T10:26:49;18.70;99.90
17381;DHT22;8808;52.478;13.378;2022-10-16T10:29:25;18.70;99.90
17381;DHT22;8808;52.478;13.378;2022-10-16T10:32:01;18.70;99.90
17381;DHT22;8808;52.478;13.378;2022-10-16T10:34:45;18.80;99.90
17381;DHT22;8808;52.478;13.378;2022-10-16T10:37:28;18.90;99.90
17381;DHT22;8808;52.478;13.378;2022-10-16T10:40:03;19.00;99.90
17381;DHT22;8808;52.478;13.378;2022-10-16T10:42:43;19.00;99.90
17381;DHT22;8808;52.478;13.378;2022-10-16T10:45:23;19.00;99.90
17381;DHT22;8808;52.478;13.378;2022-10-16T10:48:03;19.10;99.90
17381;DHT22;8808;52.478;13.378;2022-10-16T10:53:17;19.30;99.90
17381;DHT22;8808;52.478;13.378;2022-10-16T10:55:49;19.20;99.90
17381;DHT22;8808;52.478;13.378;2022-10-16T10:58:38;19.30;99.90
17381;DHT22;8808;52.478;13.378;2022-10-16T11:01:10;19.20;99.90
17381;DHT22;8808;52.478;13.378;2022-10-16T11:03:53;19.50;99.90
17381;DHT22;8808;52.478;13.378;2022-10-16T11:06:28;19.40;99.90
17381;DHT22;8808;52.478;13.378;2022-10-16T11:08:59;19.40;99.90
17381;DHT22;8808;52.478;13.378;2022-10-16T11:14:05;19.80;99.90
17381;DHT22;8808;52.478;13.378;2022-10-16T11:16:39;19.80;99.90
17381;DHT22;8808;52.478;13.378;2022-10-16T11:24:18;20.00;99.90
17381;DHT22;8808;52.478;13.378;2022-10-16T11:26:46;19.90;99.90
17381;DHT22;8808;52.478;13.378;2022-10-16T11:29:19;19.80;99.90
17381;DHT22;8808;52.478;13.378;2022-10-16T11:31:50;19.70;99.90
17381;DHT22;8808;52.478;13.378;2022-10-16T11:34:23;19.70;99.90
17381;DHT22;8808;52.478;13.378;2022-10-16T11:36:58;19.70;99.90
17381;DHT22;8808;52.478;13.378;2022-10-16T11:39:29;19.70;99.90
17381;DHT22;8808;52.478;13.378;2022-10-16T11:42:04;19.70;99.90
17381;DHT22;8808;52.478;13.378;2022-10-16T11:44:42;19.70;99.90
17381;DHT22;8808;52.478;13.378;2022-10-16T11:47:26;19.80;99.90
17381;DHT22;8808;52.478;13.378;2022-10-16T11:49:58;19.80;99.90
17381;DHT22;8808;52.478;13.378;2022-10-16T11:52:30;19.80;99.90
17381;DHT22;8808;52.478;13.378;2022-10-16T11:55:05;19.70;99.90
17381;DHT22;8808;52.478;13.378;2022-10-16T11:57:40;19.70;99.90
17381;DHT22;8808;52.478;13.378;2022-10-16T12:00:18;19.60;99.90
17381;DHT22;8808;52.478;13.378;2022-10-16T12:02:56;19.60;99.90
17381;DHT22;8808;52.478;13.378;2022-10-16T12:05:32;19.60;99.90
17381;DHT22;8808;52.478;13.378;2022-10-16T12:08:09;19.60;99.90
17381;DHT22;8808;52.478;13.378;2022-10-16T12:10:38;19.70;99.90
17381;DHT22;8808;52.478;13.378;2022-10-16T12:13:05;19.70;99.90
17381;DHT22;8808;52.478;13.378;2022-10-16T12:15:52;19.80;99.90
17381;DHT22;8808;52.478;13.378;2022-10-16T12:18:30;19.90;99.90
17381;DHT22;8808;52.478;13.378;2022-10-16T12:20:58;20.00;99.90
17381;DHT22;8808;52.478;13.378;2022-10-16T12:23:32;20.20;99.90
17381;DHT22;8808;52.478;13.378;2022-10-16T12:26:00;20.30;99.90
17381;DHT22;8808;52.478;13.378;2022-10-16T12:28:29;20.40;99.90
17381;DHT22;8808;52.478;13.378;2022-10-16T12:30:58;20.50;99.90
17381;DHT22;8808;52.478;13.378;2022-10-16T12:33:27;20.50;99.90
17381;DHT22;8808;52.478;13.378;2022-10-16T12:35:55;20.40;99.90
17381;DHT22;8808;52.478;13.378;2022-10-16T12:38:26;20.60;99.90
17381;DHT22;8808;52.478;13.378;2022-10-16T12:41:00;20.50;99.90
17381;DHT22;8808;52.478;13.378;2022-10-16T12:46:05;20.70;99.90
17381;DHT22;8808;52.478;13.378;2022-10-16T12:48:46;20.70;99.90
17381;DHT22;8808;52.478;13.378;2022-10-16T12:51:23;20.90;99.90
17381;DHT22;8808;52.478;13.378;2022-10-16T12:53:58;20.80;99.90
17381;DHT22;8808;52.478;13.378;2022-10-16T12:56:36;20.60;99.90
17381;DHT22;8808;52.478;13.378;2022-10-16T12:59:17;20.40;99.90
17381;DHT22;8808;52.478;13.378;2022-10-16T13:01:58;20.40;99.90
17381;DHT22;8808;52.478;13.378;2022-10-16T13:04:42;20.30;99.90
17381;DHT22;8808;52.478;13.378;2022-10-16T13:07:26;20.40;99.90
17381;DHT22;8808;52.478;13.378;2022-10-16T13:10:03;20.40;99.90
17381;DHT22;8808;52.478;13.378;2022-10-16T13:13:08;20.30;99.90
17381;DHT22;8808;52.478;13.378;2022-10-16T13:15:52;20.20;99.90
17381;DHT22;8808;52.478;13.378;2022-10-16T13:18:29;20.10;99.90
17381;DHT22;8808;52.478;13.378;2022-10-16T13:21:07;20.20;99.90
17381;DHT22;8808;52.478;13.378;2022-10-16T13:23:42;20.20;99.90
17381;DHT22;8808;52.478;13.378;2022-10-16T13:26:20;20.20;99.90
17381;DHT22;8808;52.478;13.378;2022-10-16T13:28:51;20.20;99.90
17381;DHT22;8808;52.478;13.378;2022-10-16T13:31:20;20.20;99.90
17381;DHT22;8808;52.478;13.378;2022-10-16T13:33:50;20.20;99.90
17381;DHT22;8808;52.478;13.378;2022-10-16T13:36:21;20.20;99.90
17381;DHT22;8808;52.478;13.378;2022-10-16T13:38:49;20.10;99.90
17381;DHT22;8808;52.478;13.378;2022-10-16T13:41:25;20.10;99.90
17381;DHT22;8808;52.478;13.378;2022-10-16T13:43:54;20.10;99.90
17381;DHT22;8808;52.478;13.378;2022-10-16T13:46:24;20.00;99.90
17381;DHT22;8808;52.478;13.378;2022-10-16T13:48:59;20.00;99.90
17381;DHT22;8808;52.478;13.378;2022-10-16T13:51:27;19.90;99.90
17381;DHT22;8808;52.478;13.378;2022-10-16T13:53:55;19.90;99.90
17381;DHT22;8808;52.478;13.378;2022-10-16T13:56:26;19.80;99.90
17381;DHT22;8808;52.478;13.378;2022-10-16T13:59:03;19.70;99.90
17381;DHT22;8808;52.478;13.378;2022-10-16T14:01:32;19.70;99.90
17381;DHT22;8808;52.478;13.378;2022-10-16T14:04:02;19.60;99.90
17381;DHT22;8808;52.478;13.378;2022-10-16T14:06:30;19.50;99.90
17381;DHT22;8808;52.478;13.378;2022-10-16T14:09:00;19.50;99.90
17381;DHT22;8808;52.478;13.378;2022-10-16T14:11:28;19.60;99.90
17381;DHT22;8808;52.478;13.378;2022-10-16T14:13:55;19.70;99.90
17381;DHT22;8808;52.478;13.378;2022-10-16T14:16:26;19.70;99.90
17381;DHT22;8808;52.478;13.378;2022-10-16T14:18:57;19.70;99.90
17381;DHT22;8808;52.478;13.378;2022-10-16T14:21:24;19.80;99.90
17381;DHT22;8808;52.478;13.378;2022-10-16T14:23:52;19.80;99.90
17381;DHT22;8808;52.478;13.378;2022-10-16T14:26:21;19.70;99.90
17381;DHT22;8808;52.478;13.378;2022-10-16T14:29:01;19.70;99.90
17381;DHT22;8808;52.478;13.378;2022-10-16T14:31:33;19.80;99.90
17381;DHT22;8808;52.478;13.378;2022-10-16T14:34:01;19.80;99.90
17381;DHT22;8808;52.478;13.378;2022-10-16T14:36:29;20.40;99.90
17381;DHT22;8808;52.478;13.378;2022-10-16T14:39:02;20.80;99.90
17381;DHT22;8808;52.478;13.378;2022-10-16T14:41:31;20.30;99.90
17381;DHT22;8808;52.478;13.378;2022-10-16T14:44:02;20.10;99.90
17381;DHT22;8808;52.478;13.378;2022-10-16T14:46:34;19.90;99.90
17381;DHT22;8808;52.478;13.378;2022-10-16T14:49:04;19.80;99.90
17381;DHT22;8808;52.478;13.378;2022-10-16T14:51:41;19.70;99.90
17381;DHT22;8808;52.478;13.378;2022-10-16T14:54:10;19.70;99.90
17381;DHT22;8808;52.478;13.378;2022-10-16T14:56:45;19.70;99.90
17381;DHT22;8808;52.478;13.378;2022-10-16T14:59:15;19.60;99.90
17381;DHT22;8808;52.478;13.378;2022-10-16T15:01:44;19.50;99.90
17381;DHT22;8808;52.478;13.378;2022-10-16T15:04:12;19.40;99.90
17381;DHT22;8808;52.478;13.378;2022-10-16T15:06:39;19.40;99.90
17381;DHT22;8808;52.478;13.378;2022-10-16T15:09:06;19.40;99.90
17381;DHT22;8808;52.478;13.378;2022-10-16T15:11:33;19.30;99.90
17381;DHT22;8808;52.478;13.378;2022-10-16T15:14:01;19.30;99.90
17381;DHT22;8808;52.478;13.378;2022-10-16T15:16:29;19.30;99.90
17381;DHT22;8808;52.478;13.378;2022-10-16T15:18:58;19.20;99.90
17381;DHT22;8808;52.478;13.378;2022-10-16T15:21:26;19.10;99.90
17381;DHT22;8808;52.478;13.378;2022-10-16T15:23:54;19.00;99.90
17381;DHT22;8808;52.478;13.378;2022-10-16T15:26:22;18.90;99.90
17381;DHT22;8808;52.478;13.378;2022-10-16T15:28:49;18.90;99.90
17381;DHT22;8808;52.478;13.378;2022-10-16T15:31:16;19.00;99.90
17381;DHT22;8808;52.478;13.378;2022-10-16T15:33:43;18.90;99.90
17381;DHT22;8808;52.478;13.378;2022-10-16T15:36:14;18.90;99.90
17381;DHT22;8808;52.478;13.378;2022-10-16T15:38:41;18.80;99.90
17381;DHT22;8808;52.478;13.378;2022-10-16T15:41:08;18.60;99.90
17381;DHT22;8808;52.478;13.378;2022-10-16T15:43:34;18.70;99.90
17381;DHT22;8808;52.478;13.378;2022-10-16T15:46:04;18.60;99.90
17381;DHT22;8808;52.478;13.378;2022-10-16T15:48:32;18.50;99.90
17381;DHT22;8808;52.478;13.378;2022-10-16T15:50:59;18.50;99.90
17381;DHT22;8808;52.478;13.378;2022-10-16T15:53:27;18.40;99.90
17381;DHT22;8808;52.478;13.378;2022-10-16T15:55:54;18.40;99.90
17381;DHT22;8808;52.478;13.378;2022-10-16T15:58:21;18.30;99.90
17381;DHT22;8808;52.478;13.378;2022-10-16T16:00:54;18.20;99.90
17381;DHT22;8808;52.478;13.378;2022-10-16T16:03:21;18.10;99.90
17381;DHT22;8808;52.478;13.378;2022-10-16T16:05:48;18.10;99.90
17381;DHT22;8808;52.478;13.378;2022-10-16T16:08:15;18.00;99.90